sensor_id;sensor_type;location;lat;lon;timestamp;temperature;humidity
34145;HTU21D;69555;53.014;8.886;2023-08-20T00:00:53;20.54;83.00
34145;HTU21D;69555;53.014;8.886;2023-08-20T00:03:20;20.51;83.06
34145;HTU21D;69555;53.014;8.886;2023-08-20T00:05:46;20.51;83.29
34145;HTU21D;69555;53.014;8.886;2023-08-20T00:08:13;20.50;83.27
34145;HTU21D;69555;53.014;8.886;2023-08-20T00:10:39;20.41;83.32
34145;HTU21D;69555;53.014;8.886;2023-08-20T00:13:06;20.31;83.58
34145;HTU21D;69555;53.014;8.886;2023-08-20T00:15:33;20.36;83.32
34145;HTU21D;69555;53.014;8.886;2023-08-20T00:17:59;20.26;83.61
34145;HTU21D;69555;53.014;8.886;2023-08-20T00:20:26;20.02;84.61
34145;HTU21D;69555;53.014;8.886;2023-08-20T00:22:54;20.10;84.97
34145;HTU21D;69555;53.014;8.886;2023-08-20T00:25:21;20.11;84.86
34145;HTU21D;69555;53.014;8.886;2023-08-20T00:27:47;20.12;84.35
34145;HTU21D;69555;53.014;8.886;2023-08-20T00:30:14;20.07;84.42
34145;HTU21D;69555;53.014;8.886;2023-08-20T00:32:41;20.09;83.86
34145;HTU21D;69555;53.014;8.886;2023-08-20T00:35:07;20.11;83.44
34145;HTU21D;69555;53.014;8.886;2023-08-20T00:37:34;20.01;83.74
34145;HTU21D;69555;53.014;8.886;2023-08-20T00:40:02;20.03;83.78
34145;HTU21D;69555;53.014;8.886;2023-08-20T00:42:31;19.48;86.16
34145;HTU21D;69555;53.014;8.886;2023-08-20T00:44:58;19.26;87.52
34145;HTU21D;69555;53.014;8.886;2023-08-20T00:47:25;19.10;88.39
34145;HTU21D;69555;53.014;8.886;2023-08-20T00:49:51;19.26;86.45
34145;HTU21D;69555;53.014;8.886;2023-08-20T00:52:17;18.92;87.95
34145;HTU21D;69555;53.014;8.886;2023-08-20T00:54:50;19.03;87.06
34145;HTU21D;69555;53.014;8.886;2023-08-20T00:57:19;18.39;90.19
34145;HTU21D;69555;53.014;8.886;2023-08-20T00:59:47;17.95;92.40
34145;HTU21D;69555;53.014;8.886;2023-08-20T01:02:18;18.06;92.30
34145;HTU21D;69555;53.014;8.886;2023-08-20T01:04:46;17.96;92.48
34145;HTU21D;69555;53.014;8.886;2023-08-20T01:07:30;17.98;91.75
34145;HTU21D;69555;53.014;8.886;2023-08-20T01:12:46;18.30;91.39
34145;HTU21D;69555;53.014;8.886;2023-08-20T01:15:13;18.35;91.90
34145;HTU21D;69555;53.014;8.886;2023-08-20T01:17:43;18.40;92.05
34145;HTU21D;69555;53.014;8.886;2023-08-20T01:20:13;18.26;93.17
34145;HTU21D;69555;53.014;8.886;2023-08-20T01:28:31;18.99;88.63
34145;HTU21D;69555;53.014;8.886;2023-08-20T01:30:59;19.10;87.46
34145;HTU21D;69555;53.014;8.886;2023-08-20T01:33:27;19.10;86.77
34145;HTU21D;69555;53.014;8.886;2023-08-20T01:35:54;18.94;88.23
34145;HTU21D;69555;53.014;8.886;2023-08-20T01:38:22;18.89;88.79
34145;HTU21D;69555;53.014;8.886;2023-08-20T01:40:49;18.71;89.15
34145;HTU21D;69555;53.014;8.886;2023-08-20T01:43:16;18.85;88.59
34145;HTU21D;69555;53.014;8.886;2023-08-20T01:45:43;18.71;89.25
34145;HTU21D;69555;53.014;8.886;2023-08-20T01:48:09;18.70;88.99
34145;HTU21D;69555;53.014;8.886;2023-08-20T01:50:36;18.71;88.64
34145;HTU21D;69555;53.014;8.886;2023-08-20T01:53:03;18.68;88.68
34145;HTU21D;69555;53.014;8.886;2023-08-20T01:55:30;18.77;87.99
34145;HTU21D;69555;53.014;8.886;2023-08-20T01:57:57;18.73;87.87
34145;HTU21D;69555;53.014;8.886;2023-08-20T02:00:23;18.50;89.08
34145;HTU21D;69555;53.014;8.886;2023-08-20T02:02:51;18.59;88.28
34145;HTU21D;69555;53.014;8.886;2023-08-20T02:05:17;18.76;87.38
34145;HTU21D;69555;53.014;8.886;2023-08-20T02:07:44;18.80;87.02
34145;HTU21D;69555;53.014;8.886;2023-08-20T02:10:11;18.83;86.56
34145;HTU21D;69555;53.014;8.886;2023-08-20T02:12:39;18.93;85.87
34145;HTU21D;69555;53.014;8.886;2023-08-20T02:15:06;18.81;86.09
34145;HTU21D;69555;53.014;8.886;2023-08-20T02:17:33;18.82;86.08
34145;HTU21D;69555;53.014;8.886;2023-08-20T02:20:05;18.82;85.80
34145;HTU21D;69555;53.014;8.886;2023-08-20T02:22:32;18.91;85.30
34145;HTU21D;69555;53.014;8.886;2023-08-20T02:24:59;18.87;85.69
34145;HTU21D;69555;53.014;8.886;2023-08-20T02:27:24;18.79;85.89
34145;HTU21D;69555;53.014;8.886;2023-08-20T02:29:50;18.67;86.14
34145;HTU21D;69555;53.014;8.886;2023-08-20T02:32:16;18.71;85.86
34145;HTU21D;69555;53.014;8.886;2023-08-20T02:34:41;18.38;87.62
34145;HTU21D;69555;53.014;8.886;2023-08-20T02:37:06;18.28;88.18
34145;HTU21D;69555;53.014;8.886;2023-08-20T02:39:32;18.50;87.08
34145;HTU21D;69555;53.014;8.886;2023-08-20T02:41:57;18.59;86.93
34145;HTU21D;69555;53.014;8.886;2023-08-20T02:44:23;18.66;86.49
34145;HTU21D;69555;53.014;8.886;2023-08-20T02:46:48;18.63;86.49
34145;HTU21D;69555;53.014;8.886;2023-08-20T02:49:14;18.72;85.55
34145;HTU21D;69555;53.014;8.886;2023-08-20T02:51:40;18.67;85.50
34145;HTU21D;69555;53.014;8.886;2023-08-20T02:54:06;18.71;85.26
34145;HTU21D;69555;53.014;8.886;2023-08-20T02:56:32;18.76;84.88
34145;HTU21D;69555;53.014;8.886;2023-08-20T02:58:57;18.70;85.26
34145;HTU21D;69555;53.014;8.886;2023-08-20T03:01:25;18.72;84.73
34145;HTU21D;69555;53.014;8.886;2023-08-20T03:03:51;18.63;84.97
34145;HTU21D;69555;53.014;8.886;2023-08-20T03:06:17;18.63;84.72
34145;HTU21D;69555;53.014;8.886;2023-08-20T03:08:42;18.56;84.81
34145;HTU21D;69555;53.014;8.886;2023-08-20T03:11:08;18.58;84.35
34145;HTU21D;69555;53.014;8.886;2023-08-20T03:13:33;18.41;85.26
34145;HTU21D;69555;53.014;8.886;2023-08-20T03:15:59;18.39;85.53
34145;HTU21D;69555;53.014;8.886;2023-08-20T03:18:24;18.33;86.26
34145;HTU21D;69555;53.014;8.886;2023-08-20T03:20:49;18.37;85.67
34145;HTU21D;69555;53.014;8.886;2023-08-20T03:23:15;18.44;84.89
34145;HTU21D;69555;53.014;8.886;2023-08-20T03:25:40;18.34;85.30
34145;HTU21D;69555;53.014;8.886;2023-08-20T03:28:06;18.36;84.96
34145;HTU21D;69555;53.014;8.886;2023-08-20T03:30:31;18.28;85.19
34145;HTU21D;69555;53.014;8.886;2023-08-20T03:32:57;18.36;84.77
34145;HTU21D;69555;53.014;8.886;2023-08-20T03:35:22;18.29;85.00
34145;HTU21D;69555;53.014;8.886;2023-08-20T03:37:48;18.28;84.87
34145;HTU21D;69555;53.014;8.886;2023-08-20T03:40:13;18.26;84.84
34145;HTU21D;69555;53.014;8.886;2023-08-20T03:42:39;18.22;84.76
34145;HTU21D;69555;53.014;8.886;2023-08-20T03:45:05;18.24;84.54
34145;HTU21D;69555;53.014;8.886;2023-08-20T03:47:31;18.17;84.69
34145;HTU21D;69555;53.014;8.886;2023-08-20T03:49:56;18.19;84.50
34145;HTU21D;69555;53.014;8.886;2023-08-20T03:52:21;18.17;84.54
34145;HTU21D;69555;53.014;8.886;2023-08-20T03:54:47;17.96;85.48
34145;HTU21D;69555;53.014;8.886;2023-08-20T03:57:12;18.04;85.14
34145;HTU21D;69555;53.014;8.886;2023-08-20T03:59:38;17.97;85.73
34145;HTU21D;69555;53.014;8.886;2023-08-20T04:02:03;17.89;86.59
34145;HTU21D;69555;53.014;8.886;2023-08-20T04:04:28;17.85;86.45
34145;HTU21D;69555;53.014;8.886;2023-08-20T04:06:54;17.82;86.29
34145;HTU21D;69555;53.014;8.886;2023-08-20T04:09:20;17.67;87.31
34145;HTU21D;69555;53.014;8.886;2023-08-20T04:11:45;17.52;88.22
34145;HTU21D;69555;53.014;8.886;2023-08-20T04:14:10;17.54;87.91
34145;HTU21D;69555;53.014;8.886;2023-08-20T04:16:36;17.43;88.97
34145;HTU21D;69555;53.014;8.886;2023-08-20T04:19:01;17.40;88.70
34145;HTU21D;69555;53.014;8.886;2023-08-20T04:21:27;17.36;88.74
34145;HTU21D;69555;53.014;8.886;2023-08-20T04:23:52;17.51;87.77
34145;HTU21D;69555;53.014;8.886;2023-08-20T04:26:17;17.52;87.41
34145;HTU21D;69555;53.014;8.886;2023-08-20T04:28:44;17.66;87.26
34145;HTU21D;69555;53.014;8.886;2023-08-20T04:31:09;17.70;87.19
34145;HTU21D;69555;53.014;8.886;2023-08-20T04:33:34;17.82;86.19
34145;HTU21D;69555;53.014;8.886;2023-08-20T04:36:00;17.92;85.90
34145;HTU21D;69555;53.014;8.886;2023-08-20T04:38:25;18.23;85.32
34145;HTU21D;69555;53.014;8.886;2023-08-20T04:40:51;18.74;83.52
34145;HTU21D;69555;53.014;8.886;2023-08-20T04:43:16;19.32;81.67
34145;HTU21D;69555;53.014;8.886;2023-08-20T04:45:42;19.81;80.74
34145;HTU21D;69555;53.014;8.886;2023-08-20T04:48:08;19.81;80.91
34145;HTU21D;69555;53.014;8.886;2023-08-20T04:50:34;19.70;81.32
34145;HTU21D;69555;53.014;8.886;2023-08-20T04:52:59;19.96;80.65
34145;HTU21D;69555;53.014;8.886;2023-08-20T04:55:25;21.31;75.06
34145;HTU21D;69555;53.014;8.886;2023-08-20T04:57:51;21.97;71.59
34145;HTU21D;69555;53.014;8.886;2023-08-20T05:00:16;22.07;70.98
34145;HTU21D;69555;53.014;8.886;2023-08-20T05:02:42;22.73;69.65
34145;HTU21D;69555;53.014;8.886;2023-08-20T05:05:07;24.00;65.36
34145;HTU21D;69555;53.014;8.886;2023-08-20T05:07:33;25.03;61.99
34145;HTU21D;69555;53.014;8.886;2023-08-20T05:09:58;26.28;58.25
34145;HTU21D;69555;53.014;8.886;2023-08-20T05:12:24;27.38;54.68
34145;HTU21D;69555;53.014;8.886;2023-08-20T05:14:49;28.45;52.02
34145;HTU21D;69555;53.014;8.886;2023-08-20T05:17:14;29.54;48.80
34145;HTU21D;69555;53.014;8.886;2023-08-20T05:19:40;30.57;46.06
34145;HTU21D;69555;53.014;8.886;2023-08-20T05:22:05;31.52;43.86
34145;HTU21D;69555;53.014;8.886;2023-08-20T05:24:30;32.44;41.88
34145;HTU21D;69555;53.014;8.886;2023-08-20T05:27:11;32.90;40.10
34145;HTU21D;69555;53.014;8.886;2023-08-20T05:29:39;33.73;38.90
34145;HTU21D;69555;53.014;8.886;2023-08-20T05:32:05;34.42;37.53
34145;HTU21D;69555;53.014;8.886;2023-08-20T05:34:30;35.01;35.94
34145;HTU21D;69555;53.014;8.886;2023-08-20T05:36:57;35.19;35.66
34145;HTU21D;69555;53.014;8.886;2023-08-20T05:39:23;35.89;34.28
34145;HTU21D;69555;53.014;8.886;2023-08-20T05:41:53;36.45;33.08
34145;HTU21D;69555;53.014;8.886;2023-08-20T05:44:21;36.24;33.21
34145;HTU21D;69555;53.014;8.886;2023-08-20T05:46:48;36.28;33.20
34145;HTU21D;69555;53.014;8.886;2023-08-20T05:49:15;36.91;32.27
34145;HTU21D;69555;53.014;8.886;2023-08-20T05:51:44;37.96;30.64
34145;HTU21D;69555;53.014;8.886;2023-08-20T05:54:11;38.61;29.32
34145;HTU21D;69555;53.014;8.886;2023-08-20T05:56:38;39.25;28.58
34145;HTU21D;69555;53.014;8.886;2023-08-20T05:59:04;39.73;27.67
34145;HTU21D;69555;53.014;8.886;2023-08-20T06:01:31;39.82;27.69
34145;HTU21D;69555;53.014;8.886;2023-08-20T06:03:58;39.86;27.63
34145;HTU21D;69555;53.014;8.886;2023-08-20T06:06:26;39.59;27.94
34145;HTU21D;69555;53.014;8.886;2023-08-20T06:08:51;39.25;28.47
34145;HTU21D;69555;53.014;8.886;2023-08-20T06:11:19;38.84;29.20
34145;HTU21D;69555;53.014;8.886;2023-08-20T06:13:46;38.93;29.21
34145;HTU21D;69555;53.014;8.886;2023-08-20T06:16:12;40.10;26.89
34145;HTU21D;69555;53.014;8.886;2023-08-20T06:18:39;37.57;31.16
34145;HTU21D;69555;53.014;8.886;2023-08-20T06:21:06;34.27;37.62
34145;HTU21D;69555;53.014;8.886;2023-08-20T06:23:32;35.23;36.05
34145;HTU21D;69555;53.014;8.886;2023-08-20T06:25:59;37.34;32.15
34145;HTU21D;69555;53.014;8.886;2023-08-20T06:28:25;38.43;30.45
34145;HTU21D;69555;53.014;8.886;2023-08-20T06:30:52;38.79;30.23
34145;HTU21D;69555;53.014;8.886;2023-08-20T06:33:18;37.92;31.57
34145;HTU21D;69555;53.014;8.886;2023-08-20T06:35:45;38.45;30.09
34145;HTU21D;69555;53.014;8.886;2023-08-20T06:38:12;38.17;30.95
34145;HTU21D;69555;53.014;8.886;2023-08-20T06:40:38;38.47;30.12
34145;HTU21D;69555;53.014;8.886;2023-08-20T06:43:05;38.68;29.97
34145;HTU21D;69555;53.014;8.886;2023-08-20T06:45:32;40.72;27.03
34145;HTU21D;69555;53.014;8.886;2023-08-20T06:47:58;40.16;27.57
34145;HTU21D;69555;53.014;8.886;2023-08-20T06:50:25;40.63;27.41
34145;HTU21D;69555;53.014;8.886;2023-08-20T06:52:52;42.53;25.13
34145;HTU21D;69555;53.014;8.886;2023-08-20T06:55:17;41.10;26.71
34145;HTU21D;69555;53.014;8.886;2023-08-20T06:57:44;40.00;28.81
34145;HTU21D;69555;53.014;8.886;2023-08-20T07:00:11;42.25;24.88
34145;HTU21D;69555;53.014;8.886;2023-08-20T07:02:37;42.99;24.33
34145;HTU21D;69555;53.014;8.886;2023-08-20T07:05:03;42.75;24.04
34145;HTU21D;69555;53.014;8.886;2023-08-20T07:07:31;38.48;30.55
34145;HTU21D;69555;53.014;8.886;2023-08-20T07:09:57;39.21;29.66
34145;HTU21D;69555;53.014;8.886;2023-08-20T07:12:23;40.90;26.76
34145;HTU21D;69555;53.014;8.886;2023-08-20T07:14:49;37.14;33.10
34145;HTU21D;69555;53.014;8.886;2023-08-20T07:17:16;40.13;28.32
34145;HTU21D;69555;53.014;8.886;2023-08-20T07:19:43;42.09;25.55
34145;HTU21D;69555;53.014;8.886;2023-08-20T07:22:09;42.36;25.03
34145;HTU21D;69555;53.014;8.886;2023-08-20T07:24:36;42.17;24.57
34145;HTU21D;69555;53.014;8.886;2023-08-20T07:27:03;42.82;24.82
34145;HTU21D;69555;53.014;8.886;2023-08-20T07:29:37;40.83;26.73
34145;HTU21D;69555;53.014;8.886;2023-08-20T07:32:04;41.28;25.43
34145;HTU21D;69555;53.014;8.886;2023-08-20T07:34:31;39.35;28.31
34145;HTU21D;69555;53.014;8.886;2023-08-20T07:37:00;39.69;29.36
34145;HTU21D;69555;53.014;8.886;2023-08-20T07:39:27;41.42;25.36
34145;HTU21D;69555;53.014;8.886;2023-08-20T07:41:52;37.58;32.69
34145;HTU21D;69555;53.014;8.886;2023-08-20T07:44:19;38.25;31.70
34145;HTU21D;69555;53.014;8.886;2023-08-20T07:46:46;39.65;30.03
34145;HTU21D;69555;53.014;8.886;2023-08-20T07:49:12;41.60;26.12
34145;HTU21D;69555;53.014;8.886;2023-08-20T07:51:39;40.42;26.99
34145;HTU21D;69555;53.014;8.886;2023-08-20T07:54:06;37.50;32.22
34145;HTU21D;69555;53.014;8.886;2023-08-20T07:56:32;38.99;29.32
34145;HTU21D;69555;53.014;8.886;2023-08-20T07:58:59;35.59;34.06
34145;HTU21D;69555;53.014;8.886;2023-08-20T08:01:26;33.14;39.66
34145;HTU21D;69555;53.014;8.886;2023-08-20T08:03:52;34.53;38.65
34145;HTU21D;69555;53.014;8.886;2023-08-20T08:06:19;35.94;36.43
34145;HTU21D;69555;53.014;8.886;2023-08-20T08:08:48;37.51;32.76
34145;HTU21D;69555;53.014;8.886;2023-08-20T08:11:13;34.67;37.49
34145;HTU21D;69555;53.014;8.886;2023-08-20T08:13:40;35.31;35.55
34145;HTU21D;69555;53.014;8.886;2023-08-20T08:16:06;34.41;37.51
34145;HTU21D;69555;53.014;8.886;2023-08-20T08:18:33;33.85;40.20
34145;HTU21D;69555;53.014;8.886;2023-08-20T08:21:00;32.23;43.18
34145;HTU21D;69555;53.014;8.886;2023-08-20T08:23:26;33.85;41.02
34145;HTU21D;69555;53.014;8.886;2023-08-20T08:25:53;32.74;41.45
34145;HTU21D;69555;53.014;8.886;2023-08-20T08:28:20;32.92;41.08
34145;HTU21D;69555;53.014;8.886;2023-08-20T08:30:47;33.46;40.46
34145;HTU21D;69555;53.014;8.886;2023-08-20T08:33:13;33.77;41.21
34145;HTU21D;69555;53.014;8.886;2023-08-20T08:35:40;33.80;40.30
34145;HTU21D;69555;53.014;8.886;2023-08-20T08:38:06;32.54;42.31
34145;HTU21D;69555;53.014;8.886;2023-08-20T08:40:33;32.53;44.54
34145;HTU21D;69555;53.014;8.886;2023-08-20T08:43:00;32.63;44.08
34145;HTU21D;69555;53.014;8.886;2023-08-20T08:45:28;33.34;43.03
34145;HTU21D;69555;53.014;8.886;2023-08-20T08:47:55;31.33;46.27
34145;HTU21D;69555;53.014;8.886;2023-08-20T08:50:22;31.26;46.96
34145;HTU21D;69555;53.014;8.886;2023-08-20T08:52:51;31.43;45.60
34145;HTU21D;69555;53.014;8.886;2023-08-20T08:55:18;32.10;44.57
34145;HTU21D;69555;53.014;8.886;2023-08-20T08:57:45;31.02;47.55
34145;HTU21D;69555;53.014;8.886;2023-08-20T09:00:13;31.65;46.26
34145;HTU21D;69555;53.014;8.886;2023-08-20T09:02:39;31.64;48.83
34145;HTU21D;69555;53.014;8.886;2023-08-20T09:05:05;30.93;49.11
34145;HTU21D;69555;53.014;8.886;2023-08-20T09:07:33;31.05;47.28
34145;HTU21D;69555;53.014;8.886;2023-08-20T09:09:59;31.05;51.27
34145;HTU21D;69555;53.014;8.886;2023-08-20T09:12:27;30.65;50.24
34145;HTU21D;69555;53.014;8.886;2023-08-20T09:14:54;29.02;52.10
34145;HTU21D;69555;53.014;8.886;2023-08-20T09:17:25;28.33;55.74
34145;HTU21D;69555;53.014;8.886;2023-08-20T09:19:54;29.28;53.78
34145;HTU21D;69555;53.014;8.886;2023-08-20T09:22:23;28.91;55.39
34145;HTU21D;69555;53.014;8.886;2023-08-20T09:24:56;28.78;53.59
34145;HTU21D;69555;53.014;8.886;2023-08-20T09:27:23;28.23;56.60
34145;HTU21D;69555;53.014;8.886;2023-08-20T09:29:54;28.56;55.36
34145;HTU21D;69555;53.014;8.886;2023-08-20T09:32:27;29.04;54.94
34145;HTU21D;69555;53.014;8.886;2023-08-20T09:34:55;28.77;56.81
34145;HTU21D;69555;53.014;8.886;2023-08-20T09:37:23;28.73;57.00
34145;HTU21D;69555;53.014;8.886;2023-08-20T09:39:50;28.94;56.23
34145;HTU21D;69555;53.014;8.886;2023-08-20T09:42:17;28.92;56.74
34145;HTU21D;69555;53.014;8.886;2023-08-20T09:44:44;28.79;56.93
34145;HTU21D;69555;53.014;8.886;2023-08-20T09:47:16;29.65;54.48
34145;HTU21D;69555;53.014;8.886;2023-08-20T09:49:46;29.58;56.46
34145;HTU21D;69555;53.014;8.886;2023-08-20T09:55:16;29.31;55.68
34145;HTU21D;69555;53.014;8.886;2023-08-20T09:57:42;29.93;53.00
34145;HTU21D;69555;53.014;8.886;2023-08-20T10:00:10;29.76;53.73
34145;HTU21D;69555;53.014;8.886;2023-08-20T10:02:38;29.03;52.84
34145;HTU21D;69555;53.014;8.886;2023-08-20T10:05:06;28.93;53.59
34145;HTU21D;69555;53.014;8.886;2023-08-20T10:07:33;29.16;54.83
34145;HTU21D;69555;53.014;8.886;2023-08-20T10:10:07;28.91;56.06
34145;HTU21D;69555;53.014;8.886;2023-08-20T10:12:35;28.63;57.11
34145;HTU21D;69555;53.014;8.886;2023-08-20T10:15:03;28.61;57.13
34145;HTU21D;69555;53.014;8.886;2023-08-20T10:17:32;28.62;58.72
34145;HTU21D;69555;53.014;8.886;2023-08-20T10:20:01;28.35;58.30
34145;HTU21D;69555;53.014;8.886;2023-08-20T10:25:11;28.45;55.03
34145;HTU21D;69555;53.014;8.886;2023-08-20T10:27:41;28.42;57.14
34145;HTU21D;69555;53.014;8.886;2023-08-20T10:30:11;28.58;58.38
34145;HTU21D;69555;53.014;8.886;2023-08-20T10:32:57;28.73;52.62
34145;HTU21D;69555;53.014;8.886;2023-08-20T10:35:56;27.70;57.15
34145;HTU21D;69555;53.014;8.886;2023-08-20T10:38:23;28.32;57.73
34145;HTU21D;69555;53.014;8.886;2023-08-20T10:43:46;27.97;58.01
34145;HTU21D;69555;53.014;8.886;2023-08-20T10:46:22;28.06;58.11
34145;HTU21D;69555;53.014;8.886;2023-08-20T10:48:58;28.64;58.11
34145;HTU21D;69555;53.014;8.886;2023-08-20T10:51:27;29.09;55.52
34145;HTU21D;69555;53.014;8.886;2023-08-20T10:54:11;28.56;54.92
34145;HTU21D;69555;53.014;8.886;2023-08-20T10:59:28;28.75;57.18
34145;HTU21D;69555;53.014;8.886;2023-08-20T11:02:01;28.84;56.74
34145;HTU21D;69555;53.014;8.886;2023-08-20T11:04:32;29.28;55.49
34145;HTU21D;69555;53.014;8.886;2023-08-20T11:06:59;29.09;56.99
34145;HTU21D;69555;53.014;8.886;2023-08-20T11:09:29;29.09;54.11
34145;HTU21D;69555;53.014;8.886;2023-08-20T11:11:56;29.44;55.87
34145;HTU21D;69555;53.014;8.886;2023-08-20T11:14:24;29.63;56.87
34145;HTU21D;69555;53.014;8.886;2023-08-20T11:16:51;29.27;54.89
34145;HTU21D;69555;53.014;8.886;2023-08-20T11:19:24;29.03;54.16
34145;HTU21D;69555;53.014;8.886;2023-08-20T11:21:51;28.61;55.41
34145;HTU21D;69555;53.014;8.886;2023-08-20T11:24:17;28.73;56.50
34145;HTU21D;69555;53.014;8.886;2023-08-20T11:26:46;29.05;56.40
34145;HTU21D;69555;53.014;8.886;2023-08-20T11:29:14;28.61;56.31
34145;HTU21D;69555;53.014;8.886;2023-08-20T11:31:47;29.23;55.27
34145;HTU21D;69555;53.014;8.886;2023-08-20T11:34:13;29.44;54.26
34145;HTU21D;69555;53.014;8.886;2023-08-20T11:36:40;28.89;54.55
34145;HTU21D;69555;53.014;8.886;2023-08-20T11:39:08;28.43;57.17
34145;HTU21D;69555;53.014;8.886;2023-08-20T11:41:40;28.44;57.90
34145;HTU21D;69555;53.014;8.886;2023-08-20T11:44:09;28.48;57.38
34145;HTU21D;69555;53.014;8.886;2023-08-20T11:46:45;28.09;57.93
34145;HTU21D;69555;53.014;8.886;2023-08-20T11:49:12;27.97;58.09
34145;HTU21D;69555;53.014;8.886;2023-08-20T11:54:19;28.31;61.26
34145;HTU21D;69555;53.014;8.886;2023-08-20T11:56:49;28.78;56.74
34145;HTU21D;69555;53.014;8.886;2023-08-20T11:59:18;28.37;55.56
34145;HTU21D;69555;53.014;8.886;2023-08-20T12:02:05;28.49;56.99
34145;HTU21D;69555;53.014;8.886;2023-08-20T12:04:33;28.93;58.65
34145;HTU21D;69555;53.014;8.886;2023-08-20T12:07:14;29.19;55.69
34145;HTU21D;69555;53.014;8.886;2023-08-20T12:09:41;28.87;54.77
34145;HTU21D;69555;53.014;8.886;2023-08-20T12:12:08;28.78;53.97
34145;HTU21D;69555;53.014;8.886;2023-08-20T12:14:35;29.16;52.11
34145;HTU21D;69555;53.014;8.886;2023-08-20T12:17:02;28.78;57.74
34145;HTU21D;69555;53.014;8.886;2023-08-20T12:19:37;28.77;53.95
34145;HTU21D;69555;53.014;8.886;2023-08-20T12:22:04;29.14;52.36
34145;HTU21D;69555;53.014;8.886;2023-08-20T12:24:31;28.84;53.91
34145;HTU21D;69555;53.014;8.886;2023-08-20T12:26:57;28.88;54.94
34145;HTU21D;69555;53.014;8.886;2023-08-20T12:29:24;28.48;54.30
34145;HTU21D;69555;53.014;8.886;2023-08-20T12:31:50;28.59;53.36
34145;HTU21D;69555;53.014;8.886;2023-08-20T12:34:17;28.74;52.65
34145;HTU21D;69555;53.014;8.886;2023-08-20T12:36:44;28.74;55.82
34145;HTU21D;69555;53.014;8.886;2023-08-20T12:39:10;29.23;54.27
34145;HTU21D;69555;53.014;8.886;2023-08-20T12:41:36;29.09;52.25
34145;HTU21D;69555;53.014;8.886;2023-08-20T12:44:03;29.02;51.40
34145;HTU21D;69555;53.014;8.886;2023-08-20T12:46:29;28.84;54.47
34145;HTU21D;69555;53.014;8.886;2023-08-20T12:48:56;28.89;52.82
34145;HTU21D;69555;53.014;8.886;2023-08-20T12:51:23;28.99;52.52
34145;HTU21D;69555;53.014;8.886;2023-08-20T12:53:49;28.30;55.89
34145;HTU21D;69555;53.014;8.886;2023-08-20T12:56:16;28.69;54.11
34145;HTU21D;69555;53.014;8.886;2023-08-20T12:58:43;29.14;52.75
34145;HTU21D;69555;53.014;8.886;2023-08-20T13:01:11;28.94;53.65
34145;HTU21D;69555;53.014;8.886;2023-08-20T13:03:37;28.52;54.10
34145;HTU21D;69555;53.014;8.886;2023-08-20T13:06:04;28.61;53.20
34145;HTU21D;69555;53.014;8.886;2023-08-20T13:08:31;28.71;54.92
34145;HTU21D;69555;53.014;8.886;2023-08-20T13:11:00;28.75;53.63
34145;HTU21D;69555;53.014;8.886;2023-08-20T13:13:27;28.70;55.23
34145;HTU21D;69555;53.014;8.886;2023-08-20T13:15:55;28.69;52.84
34145;HTU21D;69555;53.014;8.886;2023-08-20T13:18:22;28.37;55.16
34145;HTU21D;69555;53.014;8.886;2023-08-20T13:20:54;27.74;56.44
34145;HTU21D;69555;53.014;8.886;2023-08-20T13:23:21;27.81;57.11
34145;HTU21D;69555;53.014;8.886;2023-08-20T13:25:47;28.29;56.24
34145;HTU21D;69555;53.014;8.886;2023-08-20T13:28:14;28.94;51.61
34145;HTU21D;69555;53.014;8.886;2023-08-20T13:30:41;28.71;52.10
34145;HTU21D;69555;53.014;8.886;2023-08-20T13:33:07;28.75;52.75
34145;HTU21D;69555;53.014;8.886;2023-08-20T13:35:34;28.53;53.53
34145;HTU21D;69555;53.014;8.886;2023-08-20T13:38:01;28.35;52.78
34145;HTU21D;69555;53.014;8.886;2023-08-20T13:40:27;28.99;55.49
34145;HTU21D;69555;53.014;8.886;2023-08-20T13:42:54;29.11;56.24
34145;HTU21D;69555;53.014;8.886;2023-08-20T13:45:21;29.48;53.33
34145;HTU21D;69555;53.014;8.886;2023-08-20T13:47:47;29.47;50.34
34145;HTU21D;69555;53.014;8.886;2023-08-20T13:50:14;28.99;53.74
34145;HTU21D;69555;53.014;8.886;2023-08-20T13:52:40;29.21;51.13
34145;HTU21D;69555;53.014;8.886;2023-08-20T13:55:07;29.19;52.41
34145;HTU21D;69555;53.014;8.886;2023-08-20T13:57:35;29.66;52.46
34145;HTU21D;69555;53.014;8.886;2023-08-20T14:00:03;29.30;50.47
34145;HTU21D;69555;53.014;8.886;2023-08-20T14:02:35;28.74;53.07
34145;HTU21D;69555;53.014;8.886;2023-08-20T14:05:02;28.59;52.93
34145;HTU21D;69555;53.014;8.886;2023-08-20T14:07:30;28.38;54.46
34145;HTU21D;69555;53.014;8.886;2023-08-20T14:09:57;28.29;52.53
34145;HTU21D;69555;53.014;8.886;2023-08-20T14:12:23;28.79;51.82
34145;HTU21D;69555;53.014;8.886;2023-08-20T14:14:50;28.87;51.63
34145;HTU21D;69555;53.014;8.886;2023-08-20T14:17:17;28.91;51.66
34145;HTU21D;69555;53.014;8.886;2023-08-20T14:19:43;28.92;53.25
34145;HTU21D;69555;53.014;8.886;2023-08-20T14:22:10;29.14;50.98
34145;HTU21D;69555;53.014;8.886;2023-08-20T14:24:36;28.63;52.18
34145;HTU21D;69555;53.014;8.886;2023-08-20T14:27:02;28.89;52.62
34145;HTU21D;69555;53.014;8.886;2023-08-20T14:29:29;28.74;54.07
34145;HTU21D;69555;53.014;8.886;2023-08-20T14:31:56;28.59;53.06
34145;HTU21D;69555;53.014;8.886;2023-08-20T14:34:23;29.34;52.82
34145;HTU21D;69555;53.014;8.886;2023-08-20T14:36:49;29.42;50.90
34145;HTU21D;69555;53.014;8.886;2023-08-20T14:39:16;29.08;52.27
34145;HTU21D;69555;53.014;8.886;2023-08-20T14:41:43;29.18;50.92
34145;HTU21D;69555;53.014;8.886;2023-08-20T14:44:09;28.69;52.03
34145;HTU21D;69555;53.014;8.886;2023-08-20T14:46:36;28.90;51.58
34145;HTU21D;69555;53.014;8.886;2023-08-20T14:49:03;28.61;52.32
34145;HTU21D;69555;53.014;8.886;2023-08-20T14:51:30;28.70;52.56
34145;HTU21D;69555;53.014;8.886;2023-08-20T14:53:57;28.90;51.98
34145;HTU21D;69555;53.014;8.886;2023-08-20T14:56:23;28.97;52.31
34145;HTU21D;69555;53.014;8.886;2023-08-20T14:58:50;29.02;51.98
34145;HTU21D;69555;53.014;8.886;2023-08-20T15:01:16;29.19;52.13
34145;HTU21D;69555;53.014;8.886;2023-08-20T15:03:44;29.04;51.17
34145;HTU21D;69555;53.014;8.886;2023-08-20T15:06:11;29.32;50.76
34145;HTU21D;69555;53.014;8.886;2023-08-20T15:08:37;29.52;50.14
34145;HTU21D;69555;53.014;8.886;2023-08-20T15:11:04;29.19;50.84
34145;HTU21D;69555;53.014;8.886;2023-08-20T15:13:36;29.09;50.57
34145;HTU21D;69555;53.014;8.886;2023-08-20T15:16:01;29.26;50.61
34145;HTU21D;69555;53.014;8.886;2023-08-20T15:18:27;29.29;51.56
34145;HTU21D;69555;53.014;8.886;2023-08-20T15:20:56;29.53;51.19
34145;HTU21D;69555;53.014;8.886;2023-08-20T15:23:26;29.21;50.58
34145;HTU21D;69555;53.014;8.886;2023-08-20T15:25:51;28.67;53.04
34145;HTU21D;69555;53.014;8.886;2023-08-20T15:28:18;28.63;54.52
34145;HTU21D;69555;53.014;8.886;2023-08-20T15:30:44;28.55;52.67
34145;HTU21D;69555;53.014;8.886;2023-08-20T15:33:10;28.83;52.25
34145;HTU21D;69555;53.014;8.886;2023-08-20T15:35:37;29.00;50.59
34145;HTU21D;69555;53.014;8.886;2023-08-20T15:38:04;28.54;51.80